Guilford, Vermont
Current Conditions -  °F | °C
As of 9:15 AM on Saturday 25 Oct 2014 (Local Time) from KEEN Reporting Station
Overcast Overcast  
Wind Chill: 39°   Ceiling: 200
Heat Index: 39°   Visibility: 0.75mi
Dew Point: 30°   Wind: 0mph
Humidity: 70%   Direction: NA
Pressure: 29.78"   Gusts: NA
Location:  42.8513°N, 72.6568°W
Report Text: KEEN 251315Z AUTO 00000KT 3/4SM OVC002 04/M01 A2978 RMK AO1
Loading
Personal Weather Stations






























Interactive Weather Map New forecast layout! Learn more

10-Day Weather Forecast

Advertisements
Track Severe Weather on mobile